Time;durP1;ratioP1;P1;durP2;ratioP2;P2;SDS_P1;SDS_P2;PMS_P1;PMS_P2;Temp;Humidity;BMP_temperature;BMP_pressure;BME280_temperature;BME280_humidity;BME280_pressure;Samples;Min_cycle;Max_cycle;Signal;HPM_P1;HPM_P2
2022/12/28 00:00:24;;;;;;;1.80;1.17;;;3.90;99.90;3.40;101205.00;;;;4909363;28;117942;-69
2022/12/28 00:02:49;;;;;;;7.27;1.03;;;3.50;99.90;3.40;101200.00;;;;4909314;28;115173;-69
2022/12/28 00:05:16;;;;;;;1.13;1.00;;;3.60;99.90;3.40;101206.00;;;;4913859;28;109848;-70
2022/12/28 00:07:43;;;;;;;1.03;0.90;;;3.60;99.90;3.40;101206.00;;;;4906379;28;87781;-70
2022/12/28 00:10:09;;;;;;;1.10;1.00;;;3.80;99.90;3.50;101208.00;;;;4879449;28;89507;-67
2022/12/28 00:12:34;;;;;;;1.30;1.20;;;3.70;99.90;3.50;101208.00;;;;4907975;28;117438;-69
2022/12/28 00:15:00;;;;;;;1.30;1.20;;;3.70;99.90;3.60;101200.00;;;;4908031;28;87851;-69
2022/12/28 00:17:26;;;;;;;1.77;1.13;;;3.70;99.90;3.60;101196.00;;;;4913203;28;87931;-68
2022/12/28 00:19:51;;;;;;;0.77;0.67;;;3.70;99.90;3.70;101201.00;;;;4911842;28;87284;-70
2022/12/28 00:22:17;;;;;;;3.03;0.80;;;3.80;99.90;3.70;101202.00;;;;4909369;28;111508;-70
2022/12/28 00:24:43;;;;;;;1.87;1.73;;;3.80;99.90;3.80;101205.00;;;;4906901;28;110335;-72
2022/12/28 00:27:08;;;;;;;2.07;1.33;;;3.90;99.90;3.80;101193.00;;;;4908505;28;88751;-70
2022/12/28 00:29:34;;;;;;;1.83;1.57;;;4.30;99.90;3.90;101187.00;;;;4907411;28;87903;-69
2022/12/28 00:32:00;;;;;;;6.80;1.90;;;4.00;99.90;3.90;101189.00;;;;4906534;28;110968;-70
2022/12/28 00:34:25;;;;;;;3.33;2.10;;;4.10;99.90;3.90;101176.00;;;;4911343;28;109773;-72
2022/12/28 00:36:51;;;;;;;3.10;1.60;;;4.20;99.90;3.90;101185.00;;;;4911031;28;108341;-70
2022/12/28 00:39:19;;;;;;;3.97;2.10;;;4.10;99.90;3.90;101180.00;;;;4906157;28;88200;-69
2022/12/28 00:41:45;;;;;;;2.77;2.07;;;4.20;99.90;4.00;101173.00;;;;4909564;28;87885;-72
2022/12/28 00:44:11;;;;;;;6.47;2.77;;;4.30;99.90;4.00;101178.00;;;;4910790;28;87149;-69
2022/12/28 00:46:37;;;;;;;1.50;0.93;;;4.10;99.90;4.00;101168.00;;;;4896270;28;88671;-69
2022/12/28 00:49:03;;;;;;;3.07;1.37;;;4.50;99.90;4.00;101188.00;;;;4907664;28;108559;-69
2022/12/28 00:51:28;;;;;;;2.20;0.80;;;4.30;99.90;4.00;101184.00;;;;4911316;28;118052;-67
2022/12/28 00:53:54;;;;;;;2.13;1.40;;;4.20;99.90;4.00;101194.00;;;;4907572;28;109336;-70
2022/12/28 00:56:22;;;;;;;0.77;0.60;;;5.00;99.90;4.10;101169.00;;;;4909857;28;108390;-69
2022/12/28 00:58:48;;;;;;;0.50;0.50;;;4.20;99.90;4.10;101180.00;;;;4906865;28;99872;-70
2022/12/28 01:01:22;;;;;;;1.57;1.03;;;4.50;99.90;4.10;101168.00;;;;4889399;28;91013;-70
2022/12/28 01:03:48;;;;;;;3.60;1.00;;;4.30;99.90;4.10;101165.00;;;;4910618;28;87882;-70
2022/12/28 01:06:17;;;;;;;5.50;1.30;;;4.30;99.90;4.10;101165.00;;;;4907009;28;88841;-67
2022/12/28 01:08:43;;;;;;;2.07;1.07;;;4.90;99.90;4.10;101165.00;;;;4911524;28;87028;-69
2022/12/28 01:11:19;;;;;;;1.57;1.03;;;4.80;99.90;4.10;101167.00;;;;4909794;28;90023;-68
2022/12/28 01:13:47;;;;;;;2.17;1.13;;;4.30;99.90;4.10;101160.00;;;;4909824;28;88787;-69
2022/12/28 01:16:21;;;;;;;0.43;0.43;;;4.20;99.90;4.10;101147.00;;;;4911128;28;88684;-68
2022/12/28 01:18:50;;;;;;;1.20;1.10;;;4.30;99.90;4.10;101152.00;;;;4911711;28;99305;-72
2022/12/28 01:21:18;;;;;;;1.40;0.67;;;4.30;99.90;4.00;101164.00;;;;4911251;28;87965;-69
2022/12/28 01:23:46;;;;;;;1.37;0.80;;;4.30;99.90;4.00;101160.00;;;;4910663;28;88085;-70
2022/12/28 01:26:12;;;;;;;2.10;1.33;;;4.20;99.90;3.90;101162.00;;;;4907755;28;87748;-68
2022/12/28 01:28:38;;;;;;;1.57;0.90;;;4.20;99.90;3.90;101159.00;;;;4892971;28;89084;-69
2022/12/28 01:31:13;;;;;;;1.50;1.03;;;4.10;99.90;3.80;101158.00;;;;4908233;28;95369;-68
2022/12/28 01:33:40;;;;;;;2.50;1.90;;;4.00;99.90;3.70;101146.00;;;;4912591;28;87206;-69
2022/12/28 01:36:18;;;;;;;6.17;2.97;;;3.90;99.90;3.60;101152.00;;;;4905715;28;87801;-68
2022/12/28 01:38:44;;;;;;;6.13;4.37;;;3.90;99.90;3.50;101147.00;;;;4907413;28;88831;-68
2022/12/28 01:41:14;;;;;;;4.70;2.97;;;4.50;99.90;3.50;101144.00;;;;4904342;28;89114;-68
2022/12/28 01:43:51;;;;;;;6.87;5.10;;;3.70;99.90;3.40;101134.00;;;;4903024;28;88816;-69
2022/12/28 01:46:21;;;;;;;6.60;4.33;;;3.70;99.90;3.30;101141.00;;;;4908075;28;87795;-69
2022/12/28 01:49:08;;;;;;;5.53;3.07;;;3.60;99.90;3.20;101127.00;;;;4889576;28;88604;-69
2022/12/28 01:52:08;;;;;;;2.93;2.07;;;3.60;99.90;3.10;101127.00;;;;4909808;28;94608;-68
2022/12/28 01:54:43;;;;;;;2.00;1.77;;;3.40;99.90;3.10;101120.00;;;;4887495;28;92130;-69
2022/12/28 01:57:10;;;;;;;3.10;2.33;;;3.40;99.90;3.00;101120.00;;;;4897735;28;87903;-68
2022/12/28 01:59:41;;;;;;;3.67;2.23;;;3.20;99.90;2.90;101101.00;;;;4884912;28;94174;-68
2022/12/28 02:02:08;;;;;;;4.87;1.67;;;3.20;99.90;2.90;101099.00;;;;4894531;28;88115;-69
2022/12/28 02:04:34;;;;;;;2.10;1.50;;;3.20;99.90;2.80;101099.00;;;;4888314;28;87801;-68
2022/12/28 02:06:59;;;;;;;2.27;1.33;;;3.00;99.90;2.70;101082.00;;;;4913549;28;102706;-69
2022/12/28 02:09:33;;;;;;;0.83;0.80;;;3.20;99.90;2.60;101074.00;;;;4911854;28;117112;-69
2022/12/28 02:12:00;;;;;;;1.63;0.90;;;2.90;99.90;2.60;101084.00;;;;4881253;28;87961;-69
2022/12/28 02:14:26;;;;;;;2.50;1.10;;;2.80;99.90;2.50;101067.00;;;;4912902;28;87969;-68
2022/12/28 02:16:53;;;;;;;1.03;0.90;;;2.80;99.90;2.40;101061.00;;;;4910721;28;109009;-68
2022/12/28 02:19:34;;;;;;;1.17;1.00;;;2.70;99.90;2.30;101060.00;;;;4910080;28;115370;-68
2022/12/28 02:22:40;;;;;;;1.03;0.83;;;2.70;99.90;2.20;101042.00;;;;4888054;28;104941;-68
2022/12/28 02:25:18;;;;;;;1.33;1.03;;;2.60;99.90;2.10;101042.00;;;;4910533;28;87192;-68
2022/12/28 02:28:14;;;;;;;4.83;1.33;;;2.50;99.90;2.00;101036.00;;;;4909750;28;88040;-69
2022/12/28 02:31:04;;;;;;;1.50;1.27;;;2.40;99.90;1.90;101033.00;;;;4904658;28;92231;-69
2022/12/28 02:33:55;;;;;;;3.47;1.37;;;2.30;99.90;1.90;101035.00;;;;4894374;28;90171;-70
2022/12/28 02:36:33;;;;;;;2.30;1.10;;;2.20;99.90;1.80;101023.00;;;;4907357;28;94502;-69
2022/12/28 02:39:05;;;;;;;1.27;0.70;;;2.20;99.90;1.80;101020.00;;;;4898289;28;88041;-69
2022/12/28 02:41:33;;;;;;;0.77;0.63;;;2.30;99.90;1.80;101019.00;;;;4891935;28;101086;-70
2022/12/28 02:44:00;;;;;;;1.23;0.67;;;2.00;99.90;1.70;101022.00;;;;4913967;28;87814;-70
2022/12/28 02:52:21;;;;;;;1.53;0.87;;;2.00;99.90;1.70;101003.00;;;;4923957;28;86973;-70
2022/12/28 02:58:03;;;;;;;2.83;0.97;;;2.20;99.90;1.70;100986.00;;;;4900787;28;87946;-70
2022/12/28 03:00:43;;;;;;;1.70;1.43;;;2.20;99.90;1.70;100977.00;;;;4912564;28;94498;-69
2022/12/28 03:03:53;;;;;;;0.73;0.73;;;1.90;99.90;1.70;100981.00;;;;4905903;28;96481;-70
2022/12/28 03:09:58;;;;;;;2.60;1.10;;;2.10;99.90;1.80;100959.00;;;;4909093;28;88155;-69
2022/12/28 03:12:59;;;;;;;1.33;1.23;;;2.10;99.90;1.90;100961.00;;;;4909668;28;87896;-69
2022/12/28 03:15:31;;;;;;;3.87;2.30;;;2.10;99.90;2.00;100956.00;;;;4910615;28;87854;-69
2022/12/28 03:32:08;;;;;;;1.67;0.87;;;2.80;99.90;2.40;100917.00;;;;4893648;28;88507;-69
2022/12/28 03:34:34;;;;;;;0.70;0.70;;;2.60;99.90;2.40;100906.00;;;;4906245;28;106988;-69
2022/12/28 03:37:24;;;;;;;2.00;0.90;;;2.60;99.90;2.40;100901.00;;;;4910945;28;116820;-69
2022/12/28 03:40:08;;;;;;;2.73;0.83;;;2.60;99.90;2.40;100898.00;;;;4897322;28;88197;-68
2022/12/28 03:45:58;;;;;;;0.73;0.73;;;2.70;99.90;2.40;100891.00;;;;4889390;28;87769;-68
2022/12/28 03:48:24;;;;;;;0.60;0.57;;;1.80;99.90;2.40;100872.00;;;;4890747;28;87537;-69
2022/12/28 03:50:51;;;;;;;1.23;0.53;;;2.70;99.90;2.40;100871.00;;;;4911916;28;95822;-68
2022/12/28 03:53:23;;;;;;;0.50;0.50;;;2.70;99.90;2.40;100864.00;;;;4897070;28;110544;-69
2022/12/28 03:55:49;;;;;;;0.67;0.50;;;2.70;99.90;2.40;100870.00;;;;4879445;28;88838;-68
2022/12/28 03:58:14;;;;;;;2.10;0.90;;;2.70;99.90;2.40;100867.00;;;;4909965;28;111146;-68
2022/12/28 04:00:40;;;;;;;0.47;0.23;;;3.20;99.90;2.40;100854.00;;;;4910363;28;116362;-71
2022/12/28 04:03:06;;;;;;;0.80;0.80;;;2.80;99.90;2.40;100857.00;;;;4890708;28;109845;-70
2022/12/28 04:05:31;;;;;;;0.50;0.50;;;3.60;99.90;2.50;100851.00;;;;4890798;28;108641;-70
2022/12/28 04:07:57;;;;;;;0.70;0.63;;;3.70;99.90;2.40;100850.00;;;;4894621;28;88111;-70
2022/12/28 04:10:23;;;;;;;0.70;0.50;;;2.70;99.90;2.40;100839.00;;;;4906197;28;117998;-70
2022/12/28 04:12:54;;;;;;;0.97;0.60;;;2.70;99.90;2.40;100850.00;;;;4905007;28;110675;-69
2022/12/28 04:15:20;;;;;;;0.60;0.60;;;2.70;99.90;2.40;100836.00;;;;4906139;28;88179;-69
2022/12/28 04:17:46;;;;;;;0.57;0.50;;;2.70;99.90;2.40;100828.00;;;;4907980;28;117907;-69
2022/12/28 04:20:11;;;;;;;0.50;0.50;;;2.70;99.90;2.40;100820.00;;;;4906580;28;115545;-70
2022/12/28 04:22:37;;;;;;;0.50;0.40;;;2.70;99.90;2.40;100813.00;;;;4912268;28;109663;-70
2022/12/28 04:25:04;;;;;;;0.53;0.53;;;2.60;99.90;2.40;100821.00;;;;4889094;28;108357;-69
2022/12/28 04:27:30;;;;;;;1.03;0.60;;;2.80;99.90;2.40;100819.00;;;;4907559;28;88235;-70
2022/12/28 04:29:56;;;;;;;0.97;0.90;;;2.70;99.90;2.40;100818.00;;;;4909832;28;116886;-70
2022/12/28 04:32:21;;;;;;;0.63;0.63;;;2.60;99.90;2.40;100820.00;;;;4909011;28;110757;-70
2022/12/28 04:34:47;;;;;;;0.67;0.67;;;2.60;99.90;2.30;100809.00;;;;4909735;28;107835;-68
2022/12/28 04:37:13;;;;;;;1.23;0.63;;;2.60;99.90;2.30;100812.00;;;;4908730;28;117144;-70
2022/12/28 04:39:38;;;;;;;0.60;0.50;;;2.50;99.90;2.30;100805.00;;;;4904488;28;117180;-70
2022/12/28 04:42:04;;;;;;;0.93;0.60;;;2.60;99.90;2.30;100815.00;;;;4906502;28;109894;-70
2022/12/28 04:44:31;;;;;;;1.90;1.17;;;2.60;99.90;2.30;100801.00;;;;4903324;28;105827;-70
2022/12/28 04:46:56;;;;;;;0.63;0.60;;;2.60;99.90;2.30;100814.00;;;;4907990;28;87985;-69
2022/12/28 04:49:22;;;;;;;1.23;0.57;;;2.60;99.90;2.30;100799.00;;;;4912358;28;117306;-70
2022/12/28 04:51:48;;;;;;;1.37;0.87;;;2.70;99.90;2.30;100798.00;;;;4908741;28;107721;-69
2022/12/28 04:54:13;;;;;;;1.00;0.90;;;2.60;99.90;2.30;100797.00;;;;4909636;28;87695;-69
2022/12/28 04:56:39;;;;;;;0.93;0.77;;;2.60;99.90;2.30;100800.00;;;;4909409;28;117600;-70
2022/12/28 04:59:05;;;;;;;0.73;0.73;;;2.60;99.90;2.30;100785.00;;;;4907782;28;116741;-69
2022/12/28 05:01:31;;;;;;;3.63;0.97;;;2.50;99.90;2.30;100770.00;;;;4907905;28;88513;-69
2022/12/28 05:03:57;;;;;;;2.47;0.90;;;3.20;99.90;2.30;100779.00;;;;4907699;28;108876;-70
2022/12/28 05:06:24;;;;;;;0.63;0.63;;;2.60;99.90;2.30;100766.00;;;;4907151;28;88842;-70
2022/12/28 05:08:50;;;;;;;1.10;0.53;;;2.50;99.90;2.30;100766.00;;;;4908882;28;88986;-69
2022/12/28 05:11:20;;;;;;;1.50;0.60;;;2.60;99.90;2.40;100767.00;;;;4907968;28;87959;-69
2022/12/28 05:13:46;;;;;;;1.50;0.90;;;3.00;99.90;2.40;100768.00;;;;4907819;28;87825;-69
2022/12/28 05:16:19;;;;;;;1.77;0.73;;;2.60;99.90;2.40;100764.00;;;;4910246;28;89333;-69
2022/12/28 05:18:45;;;;;;;0.93;0.53;;;3.50;99.90;2.50;100764.00;;;;4895244;28;87950;-69
2022/12/28 05:21:21;;;;;;;0.53;0.40;;;2.70;99.90;2.50;100761.00;;;;4905078;28;94346;-69
2022/12/28 05:23:48;;;;;;;0.40;0.40;;;2.70;99.90;2.50;100760.00;;;;4907528;28;88037;-69
2022/12/28 05:26:18;;;;;;;8.60;0.70;;;2.70;99.90;2.50;100753.00;;;;4908798;28;87639;-69
2022/12/28 05:28:44;;;;;;;1.30;0.60;;;2.90;99.90;2.60;100744.00;;;;4909335;28;88815;-70
2022/12/28 05:31:17;;;;;;;0.87;0.47;;;3.60;99.90;2.60;100749.00;;;;4902772;28;109286;-69
2022/12/28 05:33:43;;;;;;;1.27;0.93;;;2.90;99.90;2.60;100750.00;;;;4907250;28;88799;-69
2022/12/28 05:36:12;;;;;;;0.80;0.80;;;3.70;99.90;2.70;100753.00;;;;4891108;28;88199;-69
2022/12/28 05:38:39;;;;;;;0.30;0.30;;;2.90;99.90;2.70;100752.00;;;;4905961;28;96458;-69
2022/12/28 05:41:15;;;;;;;0.43;0.43;;;2.80;99.90;2.70;100755.00;;;;4907619;28;88057;-69
2022/12/28 05:43:42;;;;;;;0.87;0.70;;;2.90;99.90;2.70;100768.00;;;;4889290;28;87931;-70
2022/12/28 05:46:12;;;;;;;0.80;0.80;;;3.00;99.90;2.80;100754.00;;;;4907035;28;95180;-71
2022/12/28 05:48:40;;;;;;;3.00;0.87;;;3.00;99.90;2.80;100754.00;;;;4907243;28;88198;-69
2022/12/28 05:51:12;;;;;;;5.23;0.67;;;3.00;99.90;2.80;100744.00;;;;4909219;28;87182;-70
2022/12/28 05:53:39;;;;;;;0.30;0.30;;;3.10;99.90;2.90;100751.00;;;;4906823;28;94413;-70
2022/12/28 05:56:13;;;;;;;1.60;0.67;;;3.10;99.90;2.90;100757.00;;;;4907325;28;88398;-70
2022/12/28 05:58:39;;;;;;;0.40;0.40;;;3.00;99.90;3.00;100747.00;;;;4909010;28;88867;-70
2022/12/28 06:01:13;;;;;;;1.27;0.60;;;3.20;99.90;3.00;100747.00;;;;4910842;28;87880;-69
2022/12/28 06:03:39;;;;;;;0.73;0.50;;;3.30;99.90;3.10;100746.00;;;;4905779;28;87827;-70
2022/12/28 06:06:09;;;;;;;1.57;0.67;;;3.30;99.90;3.10;100734.00;;;;4888909;28;89465;-72
2022/12/28 06:08:36;;;;;;;0.57;0.47;;;3.40;99.90;3.10;100738.00;;;;4909610;28;88290;-71
2022/12/28 06:11:05;;;;;;;1.60;0.90;;;2.50;99.90;3.10;100743.00;;;;4908438;28;94067;-68
2022/12/28 06:13:32;;;;;;;2.20;1.00;;;3.40;99.90;3.10;100737.00;;;;4910085;28;87981;-68
2022/12/28 06:15:58;;;;;;;0.63;0.60;;;3.60;99.90;3.20;100733.00;;;;4906061;28;87180;-69
2022/12/28 06:18:27;;;;;;;0.77;0.77;;;3.30;99.90;3.10;100730.00;;;;4908123;28;108599;-69
2022/12/28 06:20:53;;;;;;;0.73;0.70;;;3.30;99.90;3.10;100729.00;;;;4905525;28;109446;-69
2022/12/28 06:23:19;;;;;;;1.93;1.23;;;3.40;99.90;3.10;100713.00;;;;4907988;28;88773;-69
2022/12/28 06:25:44;;;;;;;1.40;1.00;;;4.10;99.90;3.10;100714.00;;;;4908049;28;88423;-69
2022/12/28 06:28:10;;;;;;;1.03;0.90;;;3.30;99.90;3.10;100710.00;;;;4905507;28;118418;-72
2022/12/28 06:30:36;;;;;;;1.03;0.83;;;3.40;99.90;3.10;100711.00;;;;4902216;28;94443;-71
2022/12/28 06:33:02;;;;;;;1.27;0.83;;;3.40;99.90;3.10;100709.00;;;;4907256;28;108350;-72
2022/12/28 06:35:27;;;;;;;0.50;0.50;;;3.40;99.90;3.20;100697.00;;;;4890610;28;94779;-72
2022/12/28 06:37:53;;;;;;;0.60;0.60;;;3.50;99.90;3.20;100704.00;;;;4895804;28;105394;-71
2022/12/28 06:40:19;;;;;;;0.60;0.60;;;3.60;99.90;3.20;100697.00;;;;4913225;28;110936;-69
2022/12/28 06:42:44;;;;;;;0.80;0.80;;;3.40;99.90;3.30;100696.00;;;;4913823;28;108563;-69
2022/12/28 06:45:10;;;;;;;1.30;1.07;;;3.50;99.90;3.30;100688.00;;;;4924303;28;116001;-68
2022/12/28 06:47:35;;;;;;;1.17;0.87;;;4.40;99.90;3.30;100693.00;;;;4924846;28;116421;-72
2022/12/28 06:50:03;;;;;;;1.50;0.83;;;3.60;99.90;3.40;100704.00;;;;4892436;28;88037;-69
2022/12/28 06:52:28;;;;;;;0.63;0.57;;;3.60;99.90;3.40;100706.00;;;;4890925;28;87876;-70
2022/12/28 06:54:54;;;;;;;0.30;0.30;;;3.70;99.90;3.50;100699.00;;;;4903674;28;116795;-72
2022/12/28 06:57:20;;;;;;;0.50;0.50;;;3.80;99.90;3.50;100685.00;;;;4909355;28;92050;-72
2022/12/28 06:59:45;;;;;;;1.60;0.70;;;3.70;99.90;3.50;100695.00;;;;4906452;28;110808;-71
2022/12/28 07:02:11;;;;;;;0.63;0.63;;;3.70;99.90;3.60;100686.00;;;;4876842;28;92988;-69
2022/12/28 07:04:37;;;;;;;1.90;0.80;;;3.70;99.90;3.60;100700.00;;;;4909151;28;109882;-69
2022/12/28 07:07:02;;;;;;;1.07;0.53;;;3.80;99.90;3.60;100696.00;;;;4907974;28;101594;-69
2022/12/28 07:09:28;;;;;;;1.00;0.90;;;4.40;99.90;3.70;100700.00;;;;4907312;28;113477;-69
2022/12/28 07:11:54;;;;;;;1.00;0.67;;;3.80;99.90;3.80;100687.00;;;;4909056;28;109079;-69
2022/12/28 07:14:19;;;;;;;0.67;0.63;;;4.00;99.90;3.80;100697.00;;;;4908240;28;116547;-69
2022/12/28 07:16:47;;;;;;;0.87;0.53;;;4.00;99.90;3.80;100686.00;;;;4905989;28;117259;-70
2022/12/28 07:19:13;;;;;;;4.80;0.50;;;4.00;99.90;3.90;100697.00;;;;4905453;28;87844;-70
2022/12/28 07:21:39;;;;;;;2.33;0.87;;;4.00;99.90;3.90;100686.00;;;;4908827;28;107223;-69
2022/12/28 07:24:06;;;;;;;2.20;0.53;;;4.00;99.90;3.90;100675.00;;;;4905143;28;88869;-70
2022/12/28 07:26:34;;;;;;;0.67;0.53;;;4.10;99.90;3.90;100679.00;;;;4893892;28;88026;-69
2022/12/28 07:29:03;;;;;;;0.57;0.47;;;4.90;99.90;3.90;100657.00;;;;4909629;28;87630;-72
2022/12/28 07:31:33;;;;;;;0.40;0.40;;;4.10;99.90;3.90;100650.00;;;;4905741;28;101604;-69
2022/12/28 07:34:00;;;;;;;1.20;0.60;;;4.10;99.90;4.00;100663.00;;;;4907844;28;88162;-69
2022/12/28 07:36:29;;;;;;;1.80;1.00;;;4.20;99.90;4.00;100656.00;;;;4908712;28;90084;-70
2022/12/28 07:38:55;;;;;;;1.40;0.50;;;4.10;99.90;4.00;100653.00;;;;4907817;28;101292;-70
2022/12/28 07:41:26;;;;;;;1.00;0.90;;;4.30;99.90;4.00;100647.00;;;;4907999;28;91102;-71
2022/12/28 07:43:53;;;;;;;0.50;0.50;;;4.20;99.90;4.00;100643.00;;;;4905682;28;89318;-72
2022/12/28 07:46:22;;;;;;;0.43;0.40;;;4.20;99.90;4.00;100641.00;;;;4905901;28;106779;-70
2022/12/28 07:48:49;;;;;;;0.53;0.40;;;4.30;99.90;4.00;100630.00;;;;4908287;28;87753;-69
2022/12/28 07:51:23;;;;;;;1.70;0.67;;;4.30;99.90;4.10;100639.00;;;;4910335;28;87709;-72
2022/12/28 07:53:50;;;;;;;0.90;0.47;;;4.50;99.90;4.10;100635.00;;;;4911306;28;87410;-70
2022/12/28 07:56:18;;;;;;;0.30;0.30;;;4.20;99.90;4.10;100634.00;;;;4904761;28;103129;-70
2022/12/28 07:58:49;;;;;;;1.17;0.87;;;4.30;99.90;4.00;100634.00;;;;4904765;28;88051;-72
2022/12/28 08:01:17;;;;;;;0.87;0.80;;;4.20;99.90;4.10;100634.00;;;;4904401;28;88988;-67
2022/12/28 08:03:43;;;;;;;0.50;0.50;;;4.30;99.90;4.10;100641.00;;;;4901724;28;88807;-72
2022/12/28 08:06:17;;;;;;;1.77;0.83;;;4.30;99.90;4.10;100640.00;;;;4901283;28;103958;-71
2022/12/28 08:08:46;;;;;;;1.20;0.70;;;4.30;99.90;4.10;100634.00;;;;4887173;28;87890;-69
2022/12/28 08:11:15;;;;;;;0.77;0.67;;;4.30;99.90;4.10;100641.00;;;;4887699;28;87940;-70
2022/12/28 08:13:44;;;;;;;1.17;0.50;;;4.20;99.90;4.10;100634.00;;;;4904701;28;88987;-70
2022/12/28 08:16:12;;;;;;;1.67;1.00;;;4.30;99.90;4.10;100634.00;;;;4907692;28;88083;-69
2022/12/28 08:18:39;;;;;;;0.70;0.70;;;4.30;99.90;4.20;100615.00;;;;4906883;28;96055;-71
2022/12/28 08:21:30;;;;;;;0.53;0.53;;;4.40;99.90;4.20;100608.00;;;;4868335;28;87922;-71
2022/12/28 08:23:57;;;;;;;1.20;0.87;;;4.40;99.90;4.20;100615.00;;;;4875655;28;90178;-72
2022/12/28 08:26:31;;;;;;;0.63;0.43;;;4.40;99.90;4.20;100614.00;;;;4902036;28;99356;-70
2022/12/28 08:29:01;;;;;;;1.07;0.57;;;4.40;99.90;4.30;100600.00;;;;4903944;28;88229;-70
2022/12/28 08:31:31;;;;;;;0.50;0.40;;;4.60;99.90;4.30;100592.00;;;;4885714;28;87875;-70
2022/12/28 08:34:00;;;;;;;1.17;0.67;;;4.80;99.90;4.30;100595.00;;;;4905664;28;88106;-69
2022/12/28 08:36:26;;;;;;;0.57;0.57;;;4.50;99.90;4.40;100582.00;;;;4891881;28;90547;-71
2022/12/28 08:38:52;;;;;;;0.77;0.77;;;4.60;99.90;4.50;100567.00;;;;4907810;28;111677;-69
2022/12/28 08:41:23;;;;;;;0.73;0.63;;;5.50;99.90;4.60;100580.00;;;;4906881;28;88094;-69
2022/12/28 08:43:51;;;;;;;1.90;1.07;;;4.70;99.90;4.70;100577.00;;;;4889582;28;87674;-69
2022/12/28 08:46:23;;;;;;;1.50;0.53;;;4.80;99.90;4.70;100576.00;;;;4905853;28;88343;-71
2022/12/28 08:48:51;;;;;;;0.83;0.60;;;4.90;99.90;4.80;100572.00;;;;4909545;28;87757;-70
2022/12/28 08:51:24;;;;;;;0.70;0.70;;;5.30;99.90;4.80;100568.00;;;;4905086;28;89135;-70
2022/12/28 08:53:50;;;;;;;1.17;0.60;;;4.90;99.90;4.90;100559.00;;;;4902639;28;94309;-69
2022/12/28 08:56:23;;;;;;;0.43;0.43;;;5.40;99.90;4.90;100561.00;;;;4888880;28;88250;-70
2022/12/28 08:58:50;;;;;;;0.70;0.60;;;5.90;99.90;5.00;100573.00;;;;4881879;28;88146;-71
2022/12/28 09:01:23;;;;;;;1.37;0.90;;;5.30;99.90;5.10;100566.00;;;;4903566;28;90662;-71
2022/12/28 09:03:52;;;;;;;4.50;0.97;;;5.30;99.90;5.30;100568.00;;;;4907513;28;94459;-69
2022/12/28 09:06:22;;;;;;;1.03;0.57;;;5.40;99.90;5.40;100573.00;;;;4901886;28;95378;-69
2022/12/28 09:08:50;;;;;;;0.60;0.47;;;6.20;99.90;5.60;100578.00;;;;4883052;28;87207;-69
2022/12/28 09:11:16;;;;;;;1.00;0.50;;;5.60;99.90;5.70;100579.00;;;;4908889;28;87947;-68
2022/12/28 09:13:42;;;;;;;0.77;0.67;;;5.90;99.90;5.80;100580.00;;;;4903139;28;87751;-68
2022/12/28 09:16:14;;;;;;;0.87;0.60;;;6.00;99.90;5.90;100570.00;;;;4904799;28;118397;-68
2022/12/28 09:18:42;;;;;;;0.30;0.30;;;6.00;99.90;6.00;100556.00;;;;4862761;28;94210;-68
2022/12/28 09:21:14;;;;;;;3.90;0.60;;;6.10;99.90;6.10;100561.00;;;;4908453;28;87591;-69
2022/12/28 09:23:41;;;;;;;0.33;0.30;;;6.30;99.90;6.20;100554.00;;;;4906837;28;91083;-69
2022/12/28 09:26:11;;;;;;;0.70;0.53;;;6.30;99.90;6.30;100554.00;;;;4898673;28;102991;-69
2022/12/28 09:28:38;;;;;;;2.57;0.73;;;6.90;99.90;6.40;100556.00;;;;4908131;28;88139;-68
2022/12/28 09:31:08;;;;;;;1.30;0.53;;;6.50;99.90;6.60;100550.00;;;;4902444;28;95662;-68
2022/12/28 09:36:19;;;;;;;0.60;0.60;;;6.80;99.90;6.80;100544.00;;;;4902737;28;88518;-69
2022/12/28 09:38:46;;;;;;;0.67;0.50;;;7.10;99.90;6.80;100531.00;;;;4906438;28;87927;-69
2022/12/28 09:41:30;;;;;;;0.67;0.67;;;7.50;99.90;6.90;100537.00;;;;4904700;28;92466;-70
2022/12/28 09:44:35;;;;;;;0.70;0.60;;;7.00;99.90;6.90;100534.00;;;;4888514;28;103412;-70
2022/12/28 09:47:16;;;;;;;0.27;0.27;;;7.10;99.90;7.00;100525.00;;;;4903720;28;87948;-69
2022/12/28 09:50:15;;;;;;;0.50;0.50;;;7.10;99.90;7.10;100534.00;;;;4903173;28;87998;-71
2022/12/28 09:53:19;;;;;;;0.40;0.40;;;6.60;99.90;7.20;100524.00;;;;4903066;28;88068;-71
2022/12/28 09:56:01;;;;;;;0.73;0.60;;;7.30;99.90;7.30;100522.00;;;;4898112;28;88592;-69
2022/12/28 09:58:29;;;;;;;1.17;0.70;;;7.40;99.90;7.40;100517.00;;;;4883789;28;105156;-69
2022/12/28 10:00:58;;;;;;;3.07;0.60;;;7.50;99.90;7.50;100511.00;;;;4889339;28;87035;-70
2022/12/28 10:03:31;;;;;;;0.97;0.77;;;7.60;99.90;7.60;100511.00;;;;4882428;28;87922;-71
2022/12/28 10:05:57;;;;;;;0.80;0.80;;;7.70;99.90;7.70;100502.00;;;;4887276;28;88192;-66
2022/12/28 10:08:25;;;;;;;0.47;0.40;;;7.70;99.90;7.80;100520.00;;;;4886743;28;89062;-69
2022/12/28 10:10:52;;;;;;;1.07;0.67;;;7.90;99.90;7.90;100507.00;;;;4884590;28;110328;-69
2022/12/28 10:13:27;;;;;;;1.60;0.83;;;8.00;99.90;7.90;100501.00;;;;4893355;28;87754;-70
2022/12/28 10:15:54;;;;;;;0.57;0.57;;;8.00;99.90;8.00;100497.00;;;;4893012;28;88082;-69
2022/12/28 10:18:25;;;;;;;0.70;0.63;;;8.10;99.90;8.00;100483.00;;;;4908942;28;90453;-68
2022/12/28 10:20:51;;;;;;;1.17;0.50;;;8.10;99.90;8.00;100486.00;;;;4882159;28;88786;-69
2022/12/28 10:23:28;;;;;;;0.57;0.47;;;8.10;99.90;8.00;100476.00;;;;4904187;28;109190;-70
2022/12/28 10:25:55;;;;;;;3.17;1.17;;;8.20;99.90;8.10;100489.00;;;;4890834;28;107985;-71
2022/12/28 10:28:46;;;;;;;1.07;0.77;;;8.20;99.90;8.10;100479.00;;;;4910983;28;88369;-70
2022/12/28 10:31:12;;;;;;;1.17;0.77;;;8.30;99.90;8.10;100475.00;;;;4877573;28;88205;-70
2022/12/28 10:33:50;;;;;;;1.80;0.70;;;8.20;99.90;8.00;100480.00;;;;4906797;28;94245;-70
2022/12/28 10:36:17;;;;;;;1.90;1.10;;;8.20;99.90;7.90;100483.00;;;;4882509;28;88304;-71
2022/12/28 10:38:50;;;;;;;1.07;0.97;;;8.10;99.90;7.80;100479.00;;;;4904718;28;89573;-70
2022/12/28 10:41:18;;;;;;;1.10;1.00;;;8.00;99.90;7.60;100483.00;;;;4892353;28;88554;-70
2022/12/28 10:43:48;;;;;;;1.80;0.90;;;7.80;99.90;7.50;100484.00;;;;4918447;28;97672;-69
2022/12/28 10:46:21;;;;;;;1.07;0.53;;;7.70;99.90;7.50;100481.00;;;;4928061;28;87722;-70
2022/12/28 10:48:52;;;;;;;2.30;0.63;;;7.60;99.90;7.40;100479.00;;;;4899934;28;87811;-69
2022/12/28 10:51:25;;;;;;;0.50;0.50;;;7.60;99.90;7.40;100476.00;;;;4888049;28;87061;-68
2022/12/28 10:53:56;;;;;;;1.03;0.60;;;7.60;99.90;7.40;100486.00;;;;4886044;28;88099;-69
2022/12/28 10:56:31;;;;;;;0.50;0.50;;;7.60;99.90;7.50;100469.00;;;;4908391;28;88359;-69
2022/12/28 10:59:11;;;;;;;0.87;0.70;;;7.60;99.90;7.50;100458.00;;;;4892620;28;89330;-68
2022/12/28 11:01:38;;;;;;;0.50;0.50;;;7.60;99.90;7.60;100451.00;;;;4910063;28;88081;-70
2022/12/28 11:04:21;;;;;;;2.43;0.87;;;7.60;99.90;7.60;100467.00;;;;4890416;28;88326;-69
2022/12/28 11:06:59;;;;;;;0.40;0.40;;;7.70;99.90;7.60;100454.00;;;;4906427;28;89943;-71
2022/12/28 11:09:29;;;;;;;1.50;0.70;;;7.80;99.90;7.70;100454.00;;;;4891024;28;87939;-72
2022/12/28 11:12:35;;;;;;;0.73;0.70;;;7.80;99.90;7.70;100448.00;;;;4884121;28;87884;-66
2022/12/28 11:15:01;;;;;;;0.60;0.60;;;7.90;99.90;7.80;100441.00;;;;4906843;28;88022;-69
2022/12/28 11:17:32;;;;;;;0.50;0.47;;;7.90;99.90;7.90;100434.00;;;;4880797;28;117137;-69
2022/12/28 11:20:08;;;;;;;1.70;0.53;;;7.90;99.90;7.90;100431.00;;;;4876179;28;108210;-69
2022/12/28 11:22:34;;;;;;;1.37;0.80;;;8.00;99.90;8.00;100431.00;;;;4909556;28;87887;-72
2022/12/28 11:25:01;;;;;;;0.27;0.27;;;8.10;99.90;8.10;100425.00;;;;4908768;28;108293;-71
2022/12/28 11:27:26;;;;;;;1.40;0.40;;;8.20;99.90;8.20;100426.00;;;;4889195;28;87743;-70
2022/12/28 11:29:53;;;;;;;0.30;0.30;;;8.20;99.90;8.30;100427.00;;;;4905598;28;116407;-71
2022/12/28 11:32:26;;;;;;;2.67;0.77;;;8.30;99.90;8.40;100424.00;;;;4901760;28;99705;-68
2022/12/28 11:34:54;;;;;;;0.37;0.37;;;8.40;99.90;8.40;100424.00;;;;4888126;28;95906;-69
2022/12/28 11:37:20;;;;;;;1.10;0.53;;;8.50;99.90;8.50;100423.00;;;;4888633;28;88482;-69
2022/12/28 11:39:49;;;;;;;0.83;0.60;;;8.60;99.90;8.60;100409.00;;;;4888445;28;89163;-68
2022/12/28 11:42:33;;;;;;;1.97;0.50;;;8.70;99.90;8.60;100409.00;;;;4890990;28;87359;-68
2022/12/28 11:45:39;;;;;;;0.77;0.57;;;8.70;99.90;8.70;100410.00;;;;4907606;28;107318;-69